sensor_id;sensor_type;location;lat;lon;timestamp;P1;durP1;ratioP1;P2;durP2;ratioP2
71620;SDS011;59471;42.254;23.102;2024-02-23T00:02:17;6.63;;;3.17;;
71620;SDS011;59471;42.254;23.102;2024-02-23T00:04:43;10.38;;;5.38;;
71620;SDS011;59471;42.254;23.102;2024-02-23T00:07:10;12.05;;;5.88;;
71620;SDS011;59471;42.254;23.102;2024-02-23T00:09:36;10.23;;;5.83;;
71620;SDS011;59471;42.254;23.102;2024-02-23T00:12:02;10.80;;;5.18;;
71620;SDS011;59471;42.254;23.102;2024-02-23T00:14:29;9.20;;;5.28;;
71620;SDS011;59471;42.254;23.102;2024-02-23T00:17:00;11.80;;;6.83;;
71620;SDS011;59471;42.254;23.102;2024-02-23T00:19:26;10.50;;;6.32;;
71620;SDS011;59471;42.254;23.102;2024-02-23T00:21:52;14.33;;;7.50;;
71620;SDS011;59471;42.254;23.102;2024-02-23T00:24:18;13.10;;;6.47;;
71620;SDS011;59471;42.254;23.102;2024-02-23T00:26:46;14.80;;;7.65;;
71620;SDS011;59471;42.254;23.102;2024-02-23T00:29:12;10.93;;;6.90;;
71620;SDS011;59471;42.254;23.102;2024-02-23T00:31:38;14.00;;;7.20;;
71620;SDS011;59471;42.254;23.102;2024-02-23T00:34:07;13.93;;;7.57;;
71620;SDS011;59471;42.254;23.102;2024-02-23T00:36:41;14.75;;;7.72;;
71620;SDS011;59471;42.254;23.102;2024-02-23T00:39:09;12.95;;;7.47;;
71620;SDS011;59471;42.254;23.102;2024-02-23T00:41:35;13.20;;;7.23;;
71620;SDS011;59471;42.254;23.102;2024-02-23T00:44:01;15.38;;;7.85;;
71620;SDS011;59471;42.254;23.102;2024-02-23T00:46:28;12.52;;;7.18;;
71620;SDS011;59471;42.254;23.102;2024-02-23T00:48:53;14.60;;;7.67;;
71620;SDS011;59471;42.254;23.102;2024-02-23T00:51:19;15.00;;;7.70;;
71620;SDS011;59471;42.254;23.102;2024-02-23T00:53:45;14.60;;;7.63;;
71620;SDS011;59471;42.254;23.102;2024-02-23T00:56:10;14.77;;;7.43;;
71620;SDS011;59471;42.254;23.102;2024-02-23T00:58:36;11.50;;;6.65;;
71620;SDS011;59471;42.254;23.102;2024-02-23T01:01:01;16.20;;;8.70;;
71620;SDS011;59471;42.254;23.102;2024-02-23T01:03:27;12.15;;;6.65;;
71620;SDS011;59471;42.254;23.102;2024-02-23T01:05:53;10.53;;;6.40;;
71620;SDS011;59471;42.254;23.102;2024-02-23T01:08:19;17.03;;;8.40;;
71620;SDS011;59471;42.254;23.102;2024-02-23T01:10:44;10.93;;;6.38;;
71620;SDS011;59471;42.254;23.102;2024-02-23T01:13:10;18.13;;;8.80;;
71620;SDS011;59471;42.254;23.102;2024-02-23T01:15:36;17.60;;;8.05;;
71620;SDS011;59471;42.254;23.102;2024-02-23T01:18:01;11.30;;;6.43;;
71620;SDS011;59471;42.254;23.102;2024-02-23T01:20:27;15.30;;;8.30;;
71620;SDS011;59471;42.254;23.102;2024-02-23T01:22:52;12.93;;;7.70;;
71620;SDS011;59471;42.254;23.102;2024-02-23T01:25:18;16.87;;;9.70;;
71620;SDS011;59471;42.254;23.102;2024-02-23T01:27:44;15.38;;;8.63;;
71620;SDS011;59471;42.254;23.102;2024-02-23T01:30:10;16.00;;;8.70;;
71620;SDS011;59471;42.254;23.102;2024-02-23T01:32:36;14.10;;;7.22;;
71620;SDS011;59471;42.254;23.102;2024-02-23T01:35:03;14.93;;;8.63;;
71620;SDS011;59471;42.254;23.102;2024-02-23T01:37:35;15.90;;;8.40;;
71620;SDS011;59471;42.254;23.102;2024-02-23T01:40:02;14.93;;;7.68;;
71620;SDS011;59471;42.254;23.102;2024-02-23T01:42:28;17.15;;;7.95;;
71620;SDS011;59471;42.254;23.102;2024-02-23T01:44:54;12.60;;;7.20;;
71620;SDS011;59471;42.254;23.102;2024-02-23T01:47:21;17.55;;;8.02;;
71620;SDS011;59471;42.254;23.102;2024-02-23T01:49:49;16.85;;;9.18;;
71620;SDS011;59471;42.254;23.102;2024-02-23T01:52:16;13.77;;;7.67;;
71620;SDS011;59471;42.254;23.102;2024-02-23T01:54:42;13.73;;;7.35;;
71620;SDS011;59471;42.254;23.102;2024-02-23T01:57:09;15.65;;;8.05;;
71620;SDS011;59471;42.254;23.102;2024-02-23T01:59:35;13.20;;;7.55;;
71620;SDS011;59471;42.254;23.102;2024-02-23T02:02:03;13.17;;;7.43;;
71620;SDS011;59471;42.254;23.102;2024-02-23T02:04:29;18.65;;;9.18;;
71620;SDS011;59471;42.254;23.102;2024-02-23T02:06:56;15.07;;;7.95;;
71620;SDS011;59471;42.254;23.102;2024-02-23T02:09:23;15.00;;;7.53;;
71620;SDS011;59471;42.254;23.102;2024-02-23T02:11:49;13.30;;;7.70;;
71620;SDS011;59471;42.254;23.102;2024-02-23T02:14:15;13.77;;;7.80;;
71620;SDS011;59471;42.254;23.102;2024-02-23T02:16:42;13.45;;;7.22;;
71620;SDS011;59471;42.254;23.102;2024-02-23T02:19:09;16.88;;;7.40;;
71620;SDS011;59471;42.254;23.102;2024-02-23T02:21:35;15.02;;;7.75;;
71620;SDS011;59471;42.254;23.102;2024-02-23T02:24:02;10.53;;;6.23;;
71620;SDS011;59471;42.254;23.102;2024-02-23T02:26:28;13.02;;;7.53;;
71620;SDS011;59471;42.254;23.102;2024-02-23T02:28:55;15.18;;;7.28;;
71620;SDS011;59471;42.254;23.102;2024-02-23T02:31:20;12.00;;;7.00;;
71620;SDS011;59471;42.254;23.102;2024-02-23T02:33:46;14.90;;;6.70;;
71620;SDS011;59471;42.254;23.102;2024-02-23T02:36:11;14.43;;;7.87;;
71620;SDS011;59471;42.254;23.102;2024-02-23T02:38:37;12.77;;;6.90;;
71620;SDS011;59471;42.254;23.102;2024-02-23T02:41:03;12.50;;;6.18;;
71620;SDS011;59471;42.254;23.102;2024-02-23T02:43:30;11.63;;;7.47;;
71620;SDS011;59471;42.254;23.102;2024-02-23T02:45:56;9.68;;;4.85;;
71620;SDS011;59471;42.254;23.102;2024-02-23T02:48:22;11.37;;;6.77;;
71620;SDS011;59471;42.254;23.102;2024-02-23T02:50:48;13.77;;;7.77;;
71620;SDS011;59471;42.254;23.102;2024-02-23T02:53:15;13.73;;;6.90;;
71620;SDS011;59471;42.254;23.102;2024-02-23T02:55:41;13.55;;;6.57;;
71620;SDS011;59471;42.254;23.102;2024-02-23T02:58:08;12.77;;;7.13;;
71620;SDS011;59471;42.254;23.102;2024-02-23T03:00:34;13.77;;;8.05;;
71620;SDS011;59471;42.254;23.102;2024-02-23T03:03:00;13.07;;;7.07;;
71620;SDS011;59471;42.254;23.102;2024-02-23T03:05:25;14.93;;;7.47;;
71620;SDS011;59471;42.254;23.102;2024-02-23T03:07:51;10.87;;;5.97;;
71620;SDS011;59471;42.254;23.102;2024-02-23T03:10:17;14.13;;;7.45;;
71620;SDS011;59471;42.254;23.102;2024-02-23T03:12:42;15.17;;;8.30;;
71620;SDS011;59471;42.254;23.102;2024-02-23T03:15:08;11.95;;;6.72;;
71620;SDS011;59471;42.254;23.102;2024-02-23T03:17:35;14.40;;;7.87;;
71620;SDS011;59471;42.254;23.102;2024-02-23T03:20:00;11.02;;;6.43;;
71620;SDS011;59471;42.254;23.102;2024-02-23T03:22:30;12.30;;;7.22;;
71620;SDS011;59471;42.254;23.102;2024-02-23T03:24:55;10.73;;;6.63;;
71620;SDS011;59471;42.254;23.102;2024-02-23T03:27:26;13.30;;;6.63;;
71620;SDS011;59471;42.254;23.102;2024-02-23T03:29:54;15.25;;;7.78;;
71620;SDS011;59471;42.254;23.102;2024-02-23T03:32:19;12.47;;;7.00;;
71620;SDS011;59471;42.254;23.102;2024-02-23T03:34:45;12.60;;;7.17;;
71620;SDS011;59471;42.254;23.102;2024-02-23T03:37:10;12.43;;;7.23;;
71620;SDS011;59471;42.254;23.102;2024-02-23T03:39:36;11.33;;;6.20;;
71620;SDS011;59471;42.254;23.102;2024-02-23T03:42:02;10.27;;;5.82;;
71620;SDS011;59471;42.254;23.102;2024-02-23T03:44:29;15.45;;;7.57;;
71620;SDS011;59471;42.254;23.102;2024-02-23T03:46:54;11.63;;;6.90;;
71620;SDS011;59471;42.254;23.102;2024-02-23T03:49:20;12.68;;;6.80;;
71620;SDS011;59471;42.254;23.102;2024-02-23T03:51:45;14.27;;;7.47;;
71620;SDS011;59471;42.254;23.102;2024-02-23T03:54:11;16.13;;;7.00;;
71620;SDS011;59471;42.254;23.102;2024-02-23T03:56:38;13.30;;;6.80;;
71620;SDS011;59471;42.254;23.102;2024-02-23T03:59:05;11.55;;;6.40;;
71620;SDS011;59471;42.254;23.102;2024-02-23T04:01:30;15.83;;;7.30;;
71620;SDS011;59471;42.254;23.102;2024-02-23T04:03:56;10.60;;;6.28;;
71620;SDS011;59471;42.254;23.102;2024-02-23T04:06:22;9.13;;;5.23;;
71620;SDS011;59471;42.254;23.102;2024-02-23T04:08:47;14.00;;;7.47;;
71620;SDS011;59471;42.254;23.102;2024-02-23T04:11:13;13.00;;;7.40;;
71620;SDS011;59471;42.254;23.102;2024-02-23T04:13:38;11.50;;;6.97;;
71620;SDS011;59471;42.254;23.102;2024-02-23T04:16:04;15.93;;;7.47;;
71620;SDS011;59471;42.254;23.102;2024-02-23T04:18:29;15.90;;;7.57;;
71620;SDS011;59471;42.254;23.102;2024-02-23T04:20:56;10.60;;;5.63;;
71620;SDS011;59471;42.254;23.102;2024-02-23T04:23:21;11.68;;;5.93;;
71620;SDS011;59471;42.254;23.102;2024-02-23T04:25:47;14.83;;;7.23;;
71620;SDS011;59471;42.254;23.102;2024-02-23T04:28:12;12.50;;;7.20;;
71620;SDS011;59471;42.254;23.102;2024-02-23T04:30:38;13.03;;;7.10;;
71620;SDS011;59471;42.254;23.102;2024-02-23T04:33:03;13.33;;;7.23;;
71620;SDS011;59471;42.254;23.102;2024-02-23T04:35:29;11.20;;;6.50;;
71620;SDS011;59471;42.254;23.102;2024-02-23T04:37:55;11.52;;;7.40;;
71620;SDS011;59471;42.254;23.102;2024-02-23T04:40:20;13.90;;;7.03;;
71620;SDS011;59471;42.254;23.102;2024-02-23T04:42:45;11.10;;;6.43;;
71620;SDS011;59471;42.254;23.102;2024-02-23T04:45:12;16.30;;;7.53;;
71620;SDS011;59471;42.254;23.102;2024-02-23T04:47:38;14.23;;;7.43;;
71620;SDS011;59471;42.254;23.102;2024-02-23T04:50:05;14.80;;;7.32;;
71620;SDS011;59471;42.254;23.102;2024-02-23T04:52:32;13.13;;;7.20;;
71620;SDS011;59471;42.254;23.102;2024-02-23T04:54:57;12.07;;;6.67;;
71620;SDS011;59471;42.254;23.102;2024-02-23T04:57:23;11.63;;;6.30;;
71620;SDS011;59471;42.254;23.102;2024-02-23T04:59:48;14.75;;;7.30;;
71620;SDS011;59471;42.254;23.102;2024-02-23T05:02:14;13.00;;;7.20;;
71620;SDS011;59471;42.254;23.102;2024-02-23T05:04:39;12.77;;;7.37;;
71620;SDS011;59471;42.254;23.102;2024-02-23T05:07:05;13.95;;;7.70;;
71620;SDS011;59471;42.254;23.102;2024-02-23T05:09:30;10.80;;;6.80;;
71620;SDS011;59471;42.254;23.102;2024-02-23T05:11:57;12.73;;;6.68;;
71620;SDS011;59471;42.254;23.102;2024-02-23T05:14:22;12.83;;;7.33;;
71620;SDS011;59471;42.254;23.102;2024-02-23T05:16:48;13.63;;;6.80;;
71620;SDS011;59471;42.254;23.102;2024-02-23T05:19:13;15.10;;;7.55;;
71620;SDS011;59471;42.254;23.102;2024-02-23T05:21:39;13.40;;;6.87;;
71620;SDS011;59471;42.254;23.102;2024-02-23T05:24:04;9.90;;;5.90;;
71620;SDS011;59471;42.254;23.102;2024-02-23T05:26:31;14.25;;;7.65;;
71620;SDS011;59471;42.254;23.102;2024-02-23T05:28:56;11.43;;;6.18;;
71620;SDS011;59471;42.254;23.102;2024-02-23T05:31:25;11.47;;;6.03;;
71620;SDS011;59471;42.254;23.102;2024-02-23T05:34:16;11.55;;;6.78;;
71620;SDS011;59471;42.254;23.102;2024-02-23T05:36:42;14.93;;;8.17;;
71620;SDS011;59471;42.254;23.102;2024-02-23T05:39:08;12.05;;;7.07;;
71620;SDS011;59471;42.254;23.102;2024-02-23T05:41:35;17.40;;;8.83;;
71620;SDS011;59471;42.254;23.102;2024-02-23T05:44:02;18.02;;;8.45;;
71620;SDS011;59471;42.254;23.102;2024-02-23T05:46:30;14.85;;;7.93;;
71620;SDS011;59471;42.254;23.102;2024-02-23T05:49:01;14.70;;;8.20;;
71620;SDS011;59471;42.254;23.102;2024-02-23T05:51:28;10.20;;;5.82;;
71620;SDS011;59471;42.254;23.102;2024-02-23T05:53:54;19.27;;;9.82;;
71620;SDS011;59471;42.254;23.102;2024-02-23T05:56:20;16.07;;;9.00;;
71620;SDS011;59471;42.254;23.102;2024-02-23T05:58:46;16.27;;;8.60;;
71620;SDS011;59471;42.254;23.102;2024-02-23T06:01:11;19.60;;;8.43;;
71620;SDS011;59471;42.254;23.102;2024-02-23T06:03:37;15.38;;;8.80;;
71620;SDS011;59471;42.254;23.102;2024-02-23T06:06:06;17.43;;;8.70;;
71620;SDS011;59471;42.254;23.102;2024-02-23T06:08:33;15.45;;;8.40;;
71620;SDS011;59471;42.254;23.102;2024-02-23T06:10:58;16.20;;;8.77;;
71620;SDS011;59471;42.254;23.102;2024-02-23T06:13:25;16.77;;;8.88;;
71620;SDS011;59471;42.254;23.102;2024-02-23T06:15:50;13.67;;;8.20;;
71620;SDS011;59471;42.254;23.102;2024-02-23T06:18:16;14.68;;;8.07;;
71620;SDS011;59471;42.254;23.102;2024-02-23T06:20:41;13.57;;;7.80;;
71620;SDS011;59471;42.254;23.102;2024-02-23T06:23:07;16.63;;;8.93;;
71620;SDS011;59471;42.254;23.102;2024-02-23T06:25:32;16.33;;;8.33;;
71620;SDS011;59471;42.254;23.102;2024-02-23T06:27:58;13.93;;;7.77;;
71620;SDS011;59471;42.254;23.102;2024-02-23T06:30:23;17.10;;;8.25;;
71620;SDS011;59471;42.254;23.102;2024-02-23T06:32:49;16.37;;;8.47;;
71620;SDS011;59471;42.254;23.102;2024-02-23T06:35:14;12.03;;;6.83;;
71620;SDS011;59471;42.254;23.102;2024-02-23T06:37:40;14.87;;;8.20;;
71620;SDS011;59471;42.254;23.102;2024-02-23T06:40:06;14.07;;;7.43;;
71620;SDS011;59471;42.254;23.102;2024-02-23T06:42:32;15.37;;;9.23;;
71620;SDS011;59471;42.254;23.102;2024-02-23T06:44:58;13.82;;;7.38;;
71620;SDS011;59471;42.254;23.102;2024-02-23T06:47:24;10.07;;;5.40;;
71620;SDS011;59471;42.254;23.102;2024-02-23T06:49:50;13.45;;;8.43;;
71620;SDS011;59471;42.254;23.102;2024-02-23T06:52:15;12.90;;;6.93;;
71620;SDS011;59471;42.254;23.102;2024-02-23T06:54:42;14.97;;;8.10;;
71620;SDS011;59471;42.254;23.102;2024-02-23T06:57:07;14.13;;;7.95;;
71620;SDS011;59471;42.254;23.102;2024-02-23T06:59:33;15.63;;;8.13;;
71620;SDS011;59471;42.254;23.102;2024-02-23T07:01:58;14.17;;;8.17;;
71620;SDS011;59471;42.254;23.102;2024-02-23T07:04:24;12.38;;;7.22;;
71620;SDS011;59471;42.254;23.102;2024-02-23T07:06:50;10.90;;;5.47;;
71620;SDS011;59471;42.254;23.102;2024-02-23T07:09:16;15.52;;;7.47;;
71620;SDS011;59471;42.254;23.102;2024-02-23T07:11:41;14.07;;;7.30;;
71620;SDS011;59471;42.254;23.102;2024-02-23T07:14:09;14.23;;;7.75;;
71620;SDS011;59471;42.254;23.102;2024-02-23T07:16:38;13.90;;;7.07;;
71620;SDS011;59471;42.254;23.102;2024-02-23T07:19:04;14.20;;;6.80;;
71620;SDS011;59471;42.254;23.102;2024-02-23T07:21:30;11.32;;;6.20;;
71620;SDS011;59471;42.254;23.102;2024-02-23T07:23:56;12.03;;;5.97;;
71620;SDS011;59471;42.254;23.102;2024-02-23T07:26:21;11.25;;;6.13;;
71620;SDS011;59471;42.254;23.102;2024-02-23T07:28:47;12.47;;;6.80;;
71620;SDS011;59471;42.254;23.102;2024-02-23T07:31:14;10.90;;;6.63;;
71620;SDS011;59471;42.254;23.102;2024-02-23T07:33:40;10.63;;;6.22;;
71620;SDS011;59471;42.254;23.102;2024-02-23T07:36:06;12.30;;;6.03;;
71620;SDS011;59471;42.254;23.102;2024-02-23T07:38:33;9.80;;;5.25;;
71620;SDS011;59471;42.254;23.102;2024-02-23T07:40:59;10.50;;;6.30;;
71620;SDS011;59471;42.254;23.102;2024-02-23T07:43:24;14.57;;;6.22;;
71620;SDS011;59471;42.254;23.102;2024-02-23T07:45:51;8.83;;;5.50;;
71620;SDS011;59471;42.254;23.102;2024-02-23T07:48:17;11.35;;;5.65;;
71620;SDS011;59471;42.254;23.102;2024-02-23T07:50:42;12.17;;;6.80;;
71620;SDS011;59471;42.254;23.102;2024-02-23T07:53:07;9.60;;;5.97;;
71620;SDS011;59471;42.254;23.102;2024-02-23T07:55:33;15.27;;;6.45;;
71620;SDS011;59471;42.254;23.102;2024-02-23T07:57:58;12.30;;;6.30;;
71620;SDS011;59471;42.254;23.102;2024-02-23T08:00:26;10.88;;;5.00;;
71620;SDS011;59471;42.254;23.102;2024-02-23T08:02:53;11.13;;;5.40;;
71620;SDS011;59471;42.254;23.102;2024-02-23T08:05:21;13.75;;;5.55;;
71620;SDS011;59471;42.254;23.102;2024-02-23T08:07:48;12.60;;;6.45;;
71620;SDS011;59471;42.254;23.102;2024-02-23T08:10:14;11.40;;;6.57;;
71620;SDS011;59471;42.254;23.102;2024-02-23T08:12:40;8.40;;;4.97;;
71620;SDS011;59471;42.254;23.102;2024-02-23T08:15:06;9.80;;;5.10;;
71620;SDS011;59471;42.254;23.102;2024-02-23T08:17:32;9.35;;;4.63;;
71620;SDS011;59471;42.254;23.102;2024-02-23T08:19:57;6.93;;;4.00;;
71620;SDS011;59471;42.254;23.102;2024-02-23T08:22:23;25.48;;;13.95;;
71620;SDS011;59471;42.254;23.102;2024-02-23T08:24:48;5.47;;;3.70;;
71620;SDS011;59471;42.254;23.102;2024-02-23T08:27:14;7.60;;;4.03;;
71620;SDS011;59471;42.254;23.102;2024-02-23T08:29:40;7.43;;;4.27;;
71620;SDS011;59471;42.254;23.102;2024-02-23T08:32:06;7.80;;;3.72;;
71620;SDS011;59471;42.254;23.102;2024-02-23T08:34:32;9.03;;;4.87;;
71620;SDS011;59471;42.254;23.102;2024-02-23T08:36:59;5.35;;;2.97;;
71620;SDS011;59471;42.254;23.102;2024-02-23T08:39:27;9.60;;;5.05;;
71620;SDS011;59471;42.254;23.102;2024-02-23T08:41:53;13.27;;;6.90;;
71620;SDS011;59471;42.254;23.102;2024-02-23T08:44:19;12.33;;;5.97;;
71620;SDS011;59471;42.254;23.102;2024-02-23T08:46:45;5.90;;;3.38;;
71620;SDS011;59471;42.254;23.102;2024-02-23T08:49:11;5.40;;;2.90;;
71620;SDS011;59471;42.254;23.102;2024-02-23T08:51:36;6.37;;;2.80;;
71620;SDS011;59471;42.254;23.102;2024-02-23T08:54:02;5.97;;;3.67;;
71620;SDS011;59471;42.254;23.102;2024-02-23T08:56:30;5.20;;;3.00;;
71620;SDS011;59471;42.254;23.102;2024-02-23T08:58:56;10.15;;;3.72;;
71620;SDS011;59471;42.254;23.102;2024-02-23T09:01:23;8.88;;;4.30;;
71620;SDS011;59471;42.254;23.102;2024-02-23T09:03:48;5.43;;;2.53;;
71620;SDS011;59471;42.254;23.102;2024-02-23T09:06:14;5.87;;;2.60;;
71620;SDS011;59471;42.254;23.102;2024-02-23T09:08:39;7.20;;;2.97;;
71620;SDS011;59471;42.254;23.102;2024-02-23T09:11:06;8.47;;;3.73;;
71620;SDS011;59471;42.254;23.102;2024-02-23T09:13:31;4.00;;;1.73;;
71620;SDS011;59471;42.254;23.102;2024-02-23T09:15:57;3.73;;;1.43;;
71620;SDS011;59471;42.254;23.102;2024-02-23T09:18:22;3.20;;;1.83;;
71620;SDS011;59471;42.254;23.102;2024-02-23T09:20:48;2.73;;;1.27;;
71620;SDS011;59471;42.254;23.102;2024-02-23T09:23:13;3.17;;;1.40;;
71620;SDS011;59471;42.254;23.102;2024-02-23T09:25:39;6.95;;;3.55;;
71620;SDS011;59471;42.254;23.102;2024-02-23T09:28:04;3.33;;;1.63;;
71620;SDS011;59471;42.254;23.102;2024-02-23T09:30:30;4.73;;;1.60;;
71620;SDS011;59471;42.254;23.102;2024-02-23T09:32:56;6.55;;;2.50;;
71620;SDS011;59471;42.254;23.102;2024-02-23T09:35:21;4.17;;;2.40;;
71620;SDS011;59471;42.254;23.102;2024-02-23T09:37:47;2.60;;;1.20;;
71620;SDS011;59471;42.254;23.102;2024-02-23T09:40:12;3.60;;;1.60;;
71620;SDS011;59471;42.254;23.102;2024-02-23T09:42:40;3.10;;;1.40;;
71620;SDS011;59471;42.254;23.102;2024-02-23T09:45:06;2.97;;;1.20;;
71620;SDS011;59471;42.254;23.102;2024-02-23T09:47:34;3.47;;;1.30;;
71620;SDS011;59471;42.254;23.102;2024-02-23T09:49:59;3.47;;;1.93;;
71620;SDS011;59471;42.254;23.102;2024-02-23T09:52:29;2.90;;;1.30;;
71620;SDS011;59471;42.254;23.102;2024-02-23T09:54:54;3.88;;;1.90;;
71620;SDS011;59471;42.254;23.102;2024-02-23T09:57:20;3.63;;;1.83;;
71620;SDS011;59471;42.254;23.102;2024-02-23T09:59:47;2.55;;;1.17;;
71620;SDS011;59471;42.254;23.102;2024-02-23T10:02:14;3.20;;;1.60;;
71620;SDS011;59471;42.254;23.102;2024-02-23T10:04:42;2.95;;;1.13;;
71620;SDS011;59471;42.254;23.102;2024-02-23T10:07:08;2.38;;;1.20;;
71620;SDS011;59471;42.254;23.102;2024-02-23T10:09:34;2.63;;;1.17;;
71620;SDS011;59471;42.254;23.102;2024-02-23T10:12:01;3.00;;;1.38;;
71620;SDS011;59471;42.254;23.102;2024-02-23T10:14:28;3.05;;;1.20;;
71620;SDS011;59471;42.254;23.102;2024-02-23T10:16:53;3.10;;;1.40;;
71620;SDS011;59471;42.254;23.102;2024-02-23T10:19:20;2.80;;;1.25;;
71620;SDS011;59471;42.254;23.102;2024-02-23T10:21:53;4.05;;;1.33;;
71620;SDS011;59471;42.254;23.102;2024-02-23T10:24:19;3.07;;;1.23;;
71620;SDS011;59471;42.254;23.102;2024-02-23T10:26:46;2.75;;;1.20;;
71620;SDS011;59471;42.254;23.102;2024-02-23T10:29:11;2.90;;;1.50;;
71620;SDS011;59471;42.254;23.102;2024-02-23T10:31:37;5.55;;;1.67;;
71620;SDS011;59471;42.254;23.102;2024-02-23T10:34:07;2.53;;;1.23;;
71620;SDS011;59471;42.254;23.102;2024-02-23T10:36:37;3.50;;;1.20;;
71620;SDS011;59471;42.254;23.102;2024-02-23T10:39:07;2.55;;;1.30;;
71620;SDS011;59471;42.254;23.102;2024-02-23T10:41:37;2.78;;;1.48;;
71620;SDS011;59471;42.254;23.102;2024-02-23T10:44:11;3.13;;;1.30;;
71620;SDS011;59471;42.254;23.102;2024-02-23T10:46:38;2.58;;;1.25;;
71620;SDS011;59471;42.254;23.102;2024-02-23T10:49:06;2.60;;;1.17;;
71620;SDS011;59471;42.254;23.102;2024-02-23T10:51:32;2.80;;;1.30;;
71620;SDS011;59471;42.254;23.102;2024-02-23T10:53:59;2.90;;;1.30;;
71620;SDS011;59471;42.254;23.102;2024-02-23T10:56:25;2.70;;;1.27;;
71620;SDS011;59471;42.254;23.102;2024-02-23T10:58:52;2.97;;;1.40;;
71620;SDS011;59471;42.254;23.102;2024-02-23T11:01:17;3.03;;;1.23;;
71620;SDS011;59471;42.254;23.102;2024-02-23T11:03:45;3.72;;;1.48;;
71620;SDS011;59471;42.254;23.102;2024-02-23T11:06:15;3.37;;;1.70;;
71620;SDS011;59471;42.254;23.102;2024-02-23T11:08:45;3.20;;;1.40;;
71620;SDS011;59471;42.254;23.102;2024-02-23T11:11:15;3.97;;;1.77;;
71620;SDS011;59471;42.254;23.102;2024-02-23T11:13:43;2.70;;;1.33;;
71620;SDS011;59471;42.254;23.102;2024-02-23T11:16:10;2.83;;;1.57;;
71620;SDS011;59471;42.254;23.102;2024-02-23T11:18:36;2.75;;;1.48;;
71620;SDS011;59471;42.254;23.102;2024-02-23T11:21:04;3.63;;;1.13;;
71620;SDS011;59471;42.254;23.102;2024-02-23T11:23:44;3.40;;;1.70;;
71620;SDS011;59471;42.254;23.102;2024-02-23T11:26:16;4.57;;;1.60;;
71620;SDS011;59471;42.254;23.102;2024-02-23T11:28:49;2.67;;;1.27;;
71620;SDS011;59471;42.254;23.102;2024-02-23T11:31:19;2.65;;;1.40;;
71620;SDS011;59471;42.254;23.102;2024-02-23T11:33:48;4.80;;;1.50;;
71620;SDS011;59471;42.254;23.102;2024-02-23T11:36:34;2.88;;;1.38;;
71620;SDS011;59471;42.254;23.102;2024-02-23T11:39:01;2.80;;;1.33;;
71620;SDS011;59471;42.254;23.102;2024-02-23T11:41:28;4.47;;;2.17;;
71620;SDS011;59471;42.254;23.102;2024-02-23T11:43:54;2.72;;;1.25;;
71620;SDS011;59471;42.254;23.102;2024-02-23T11:46:21;3.03;;;1.60;;
71620;SDS011;59471;42.254;23.102;2024-02-23T11:48:47;3.70;;;1.50;;
71620;SDS011;59471;42.254;23.102;2024-02-23T11:51:21;3.22;;;1.52;;
71620;SDS011;59471;42.254;23.102;2024-02-23T11:53:49;2.67;;;1.40;;
71620;SDS011;59471;42.254;23.102;2024-02-23T11:56:15;3.40;;;1.50;;
71620;SDS011;59471;42.254;23.102;2024-02-23T11:58:42;3.08;;;1.20;;
71620;SDS011;59471;42.254;23.102;2024-02-23T12:01:08;3.53;;;1.30;;
71620;SDS011;59471;42.254;23.102;2024-02-23T12:03:34;3.00;;;1.20;;
71620;SDS011;59471;42.254;23.102;2024-02-23T12:06:00;3.90;;;1.67;;
71620;SDS011;59471;42.254;23.102;2024-02-23T12:08:27;2.77;;;1.30;;
71620;SDS011;59471;42.254;23.102;2024-02-23T12:10:55;3.33;;;1.40;;
71620;SDS011;59471;42.254;23.102;2024-02-23T12:13:22;3.17;;;1.40;;
71620;SDS011;59471;42.254;23.102;2024-02-23T12:15:48;23.90;;;12.93;;
71620;SDS011;59471;42.254;23.102;2024-02-23T12:18:18;4.85;;;2.58;;
71620;SDS011;59471;42.254;23.102;2024-02-23T12:20:48;3.45;;;2.03;;
71620;SDS011;59471;42.254;23.102;2024-02-23T12:23:14;2.83;;;1.60;;
71620;SDS011;59471;42.254;23.102;2024-02-23T12:25:41;3.17;;;1.40;;
71620;SDS011;59471;42.254;23.102;2024-02-23T12:28:21;3.25;;;1.63;;
71620;SDS011;59471;42.254;23.102;2024-02-23T12:30:57;2.73;;;1.50;;
71620;SDS011;59471;42.254;23.102;2024-02-23T12:33:27;3.58;;;1.75;;
71620;SDS011;59471;42.254;23.102;2024-02-23T12:36:00;2.30;;;1.20;;
71620;SDS011;59471;42.254;23.102;2024-02-23T12:38:28;3.30;;;1.30;;
71620;SDS011;59471;42.254;23.102;2024-02-23T12:40:54;2.90;;;1.30;;
71620;SDS011;59471;42.254;23.102;2024-02-23T12:43:20;3.50;;;1.60;;
71620;SDS011;59471;42.254;23.102;2024-02-23T12:45:50;4.13;;;1.73;;
71620;SDS011;59471;42.254;23.102;2024-02-23T12:48:17;3.38;;;1.70;;
71620;SDS011;59471;42.254;23.102;2024-02-23T12:50:43;5.50;;;1.65;;
71620;SDS011;59471;42.254;23.102;2024-02-23T12:53:10;3.27;;;1.50;;
71620;SDS011;59471;42.254;23.102;2024-02-23T12:55:56;3.38;;;1.52;;
71620;SDS011;59471;42.254;23.102;2024-02-23T12:58:22;3.10;;;1.50;;
71620;SDS011;59471;42.254;23.102;2024-02-23T13:00:47;2.85;;;1.50;;
71620;SDS011;59471;42.254;23.102;2024-02-23T13:03:13;4.00;;;1.83;;
71620;SDS011;59471;42.254;23.102;2024-02-23T13:05:38;3.55;;;2.10;;
71620;SDS011;59471;42.254;23.102;2024-02-23T13:08:04;3.77;;;1.80;;
71620;SDS011;59471;42.254;23.102;2024-02-23T13:10:30;10.63;;;5.88;;
71620;SDS011;59471;42.254;23.102;2024-02-23T13:12:56;3.40;;;2.00;;
71620;SDS011;59471;42.254;23.102;2024-02-23T13:15:22;5.07;;;2.20;;
71620;SDS011;59471;42.254;23.102;2024-02-23T13:17:47;2.83;;;1.53;;
71620;SDS011;59471;42.254;23.102;2024-02-23T13:20:13;3.37;;;1.50;;
71620;SDS011;59471;42.254;23.102;2024-02-23T13:22:39;3.28;;;1.60;;
71620;SDS011;59471;42.254;23.102;2024-02-23T13:25:04;3.90;;;2.00;;
71620;SDS011;59471;42.254;23.102;2024-02-23T13:27:31;2.72;;;1.30;;
71620;SDS011;59471;42.254;23.102;2024-02-23T13:29:56;4.27;;;1.53;;
71620;SDS011;59471;42.254;23.102;2024-02-23T13:32:22;3.47;;;1.63;;
71620;SDS011;59471;42.254;23.102;2024-02-23T13:34:47;5.17;;;2.30;;
71620;SDS011;59471;42.254;23.102;2024-02-23T13:37:17;3.88;;;1.65;;
71620;SDS011;59471;42.254;23.102;2024-02-23T13:39:43;5.37;;;2.07;;
71620;SDS011;59471;42.254;23.102;2024-02-23T13:42:09;4.82;;;1.98;;
71620;SDS011;59471;42.254;23.102;2024-02-23T13:44:35;25.37;;;13.87;;
71620;SDS011;59471;42.254;23.102;2024-02-23T13:47:01;6.05;;;2.42;;
71620;SDS011;59471;42.254;23.102;2024-02-23T13:49:27;4.90;;;2.13;;
71620;SDS011;59471;42.254;23.102;2024-02-23T13:51:53;3.20;;;1.90;;
71620;SDS011;59471;42.254;23.102;2024-02-23T13:54:19;5.47;;;2.03;;
71620;SDS011;59471;42.254;23.102;2024-02-23T13:56:44;3.90;;;2.25;;
71620;SDS011;59471;42.254;23.102;2024-02-23T13:59:10;3.53;;;2.00;;
71620;SDS011;59471;42.254;23.102;2024-02-23T14:01:35;3.73;;;2.10;;
71620;SDS011;59471;42.254;23.102;2024-02-23T14:04:05;3.65;;;1.90;;
71620;SDS011;59471;42.254;23.102;2024-02-23T14:06:32;5.03;;;2.50;;
71620;SDS011;59471;42.254;23.102;2024-02-23T14:08:58;3.15;;;1.45;;
71620;SDS011;59471;42.254;23.102;2024-02-23T14:11:23;3.17;;;1.60;;
71620;SDS011;59471;42.254;23.102;2024-02-23T14:13:50;3.10;;;1.50;;
71620;SDS011;59471;42.254;23.102;2024-02-23T14:16:16;3.90;;;2.00;;
71620;SDS011;59471;42.254;23.102;2024-02-23T14:18:41;4.50;;;2.37;;
71620;SDS011;59471;42.254;23.102;2024-02-23T14:21:09;17.30;;;8.02;;
71620;SDS011;59471;42.254;23.102;2024-02-23T14:23:35;7.05;;;3.50;;